CDT,Max TemperatureF,Mean TemperatureF,Min TemperatureF,Max Dew PointF,MeanDew PointF,Min DewpointF,Max Humidity, Mean Humidity, Min Humidity, Max Sea Level PressureIn, Mean Sea Level PressureIn, Min Sea Level PressureIn, Max VisibilityMiles, Mean VisibilityMiles, Min VisibilityMiles, Max Wind SpeedMPH, Mean Wind SpeedMPH, Max Gust SpeedMPH,PrecipitationIn, CloudCover, Events, WindDirDegrees
2013-5-1,83,69,55,58,54,49,94,61,31,30.10,30.05,29.96,10,10,5,17,5,23,0.00,0,,171
2013-5-2,73,62,51,64,57,50,93,79,61,30.14,30.10,30.06,10,8,3,14,3,20,0.00,5,Rain-Thunderstorm,335
2013-5-3,68,56,45,63,53,44,95,90,77,30.09,29.91,29.78,10,6,1,30,9,41,0.13,7,Rain,68
2013-5-4,62,57,52,58,54,50,95,91,78,30.02,29.92,29.84,10,9,3,14,7,22,0.01,8,Rain,144
2013-5-5,70,61,53,57,54,51,96,82,58,30.02,29.96,29.90,10,9,3,16,5,20,0.00,8,Rain,33
2013-5-6,73,63,53,58,53,48,93,70,43,29.99,29.96,29.93,10,10,10,14,5,18,0.00,7,,20
2013-5-7,79,66,53,56,47,40,82,50,25,30.04,29.99,29.95,10,10,10,8,3,,0.00,2,,12
2013-5-8,82,67,52,56,50,40,95,56,23,30.03,29.99,29.95,10,10,5,6,1,,0.00,0,,240
2013-5-9,68,64,61,63,59,56,94,86,75,30.01,29.95,29.81,10,7,0,15,3,20,0.00,7,Fog-Rain-Thunderstorm,139
2013-5-10,57,54,51,55,52,50,94,90,82,29.99,29.95,29.90,10,8,2,10,6,,0.00,8,Rain,341
2013-5-11,64,55,46,54,41,28,88,62,30,30.12,30.01,29.93,10,9,5,17,5,28,0.00,4,,306
2013-5-12,60,50,39,34,29,25,75,46,27,30.19,30.15,30.12,10,10,10,13,4,21,0.00,0,,307
2013-5-13,71,53,35,43,35,28,93,50,21,30.21,30.13,30.03,10,10,10,9,2,,0.00,0,,230
2013-5-14,91,72,53,59,52,41,72,48,31,30.03,29.83,29.71,10,10,10,15,9,21,0.00,0,,208
2013-5-15,87,79,68,61,56,52,73,45,33,29.86,29.82,29.77,10,10,10,12,7,22,0.00,0,Thunderstorm,251
2013-5-16,84,75,64,61,56,46,77,53,29,29.94,29.88,29.82,10,10,10,14,4,22,0.00,1,Thunderstorm,198
2013-5-17,80,70,59,66,60,54,94,70,44,29.98,29.95,29.91,10,9,4,13,4,21,0.00,4,Rain,158
2013-5-18,84,72,60,64,62,59,100,72,45,30.02,29.96,29.90,10,7,0,10,4,,0.00,4,Fog,149
2013-5-19,89,76,62,70,66,61,94,68,46,29.93,29.83,29.71,10,8,2,18,8,26,0.00,1,,156
2013-5-20,89,76,64,66,61,54,94,64,31,29.87,29.78,29.70,10,9,1,24,11,31,0.00,4,Rain-Thunderstorm,202
2013-5-21,82,73,64,66,64,61,94,73,51,29.82,29.71,29.66,10,10,5,17,9,25,0.00,4,Rain-Thunderstorm,194
2013-5-22,75,68,62,66,59,54,94,75,50,29.81,29.71,29.64,10,9,2,12,5,22,0.00,7,Rain,230
2013-5-23,62,55,48,59,52,46,94,78,63,30.26,30.01,29.82,10,10,2,20,5,26,0.00,7,Rain,356
2013-5-24,69,55,41,46,39,34,93,58,27,30.43,30.34,30.27,10,10,10,13,5,23,0.00,0,,40
2013-5-25,57,52,48,52,45,37,94,75,51,30.42,30.30,30.21,10,10,2,15,6,21,0.00,6,Rain-Thunderstorm,90
2013-5-26,66,60,53,61,55,50,94,89,73,30.28,30.17,30.01,10,8,2,16,8,22,0.00,7,Rain-Thunderstorm,120
2013-5-27,73,66,60,66,62,57,100,88,73,30.08,29.92,29.77,10,8,1,18,3,26,0.00,6,Rain-Thunderstorm,146
2013-5-28,82,73,64,70,67,63,94,80,66,29.88,29.82,29.73,10,10,4,23,7,31,0.00,4,Rain-Thunderstorm,195
2013-5-29,86,75,64,68,65,61,94,71,51,29.95,29.90,29.84,10,10,5,18,7,25,0.00,2,Rain-Thunderstorm,184
2013-5-30,84,74,64,70,66,61,100,73,58,29.92,29.86,29.78,10,10,3,28,13,37,0.00,3,Rain-Thunderstorm,176
2013-5-31,78,71,64,72,66,63,100,86,69,29.90,29.81,29.70,10,10,2,21,8,30,0.00,5,Rain-Thunderstorm,181